createdAt,value
2018-11-07T00:03:21.646Z,99950.09
2018-11-07T00:08:25.252Z,99943.62
2018-11-07T00:13:28.786Z,99952.09
2018-11-07T00:18:32.607Z,99953.40
2018-11-07T00:23:36.216Z,99961.38
2018-11-07T00:28:39.919Z,99951.25
2018-11-07T00:33:43.963Z,99962.73
2018-11-07T00:38:47.713Z,99947.69
2018-11-07T00:43:51.788Z,99957.45
2018-11-07T00:48:56.437Z,99978.61
2018-11-07T00:54:00.114Z,99970.02
2018-11-07T00:59:03.977Z,99960.16
2018-11-07T01:04:07.756Z,99954.96
2018-11-07T01:09:12.569Z,99949.93
2018-11-07T01:14:16.123Z,99947.62
2018-11-07T01:19:19.727Z,99948.91
2018-11-07T01:24:23.362Z,99973.08
2018-11-07T01:29:27.348Z,99980.89
2018-11-07T01:34:30.908Z,99989.31
2018-11-07T01:39:34.731Z,99994.75
2018-11-07T01:44:38.414Z,99979.95
2018-11-07T01:49:42.222Z,99985.67
2018-11-07T01:54:45.898Z,99983.12
2018-11-07T01:59:49.594Z,99983.56
2018-11-07T02:04:53.335Z,99984.45
2018-11-07T02:09:56.925Z,99978.91
2018-11-07T02:15:02.134Z,99979.38
2018-11-07T02:20:07.203Z,99973.64
2018-11-07T02:25:11.094Z,99973.67
2018-11-07T02:35:28.547Z,99975.70
2018-11-07T02:40:32.161Z,99975.99
2018-11-07T02:45:35.911Z,99973.25
2018-11-07T02:50:40.492Z,99967.23
2018-11-07T02:55:44.024Z,99958.73
2018-11-07T03:00:47.627Z,99970.80
2018-11-07T03:05:51.176Z,99974.31
2018-11-07T03:10:55.016Z,99964.03
2018-11-07T03:15:58.940Z,99966.19
2018-11-07T03:21:02.707Z,99975.94
2018-11-07T03:26:06.805Z,99994.92
2018-11-07T03:31:10.424Z,99987.69
2018-11-07T03:36:14.305Z,99988.15
2018-11-07T03:41:17.936Z,100006.08
2018-11-07T03:46:21.531Z,99993.93
2018-11-07T03:51:25.136Z,99993.37
2018-11-07T03:56:28.698Z,99990.74
2018-11-07T04:01:32.294Z,99996.86
2018-11-07T04:06:35.817Z,100002.05
2018-11-07T04:11:39.491Z,100011.25
2018-11-07T04:16:43.276Z,100008.31
2018-11-07T04:21:47.150Z,100009.54
2018-11-07T04:26:51.009Z,100007.34
2018-11-07T04:31:54.720Z,100004.05
2018-11-07T04:36:58.314Z,100016.98
2018-11-07T04:42:01.922Z,100018.27
2018-11-07T04:47:05.837Z,100023.44
2018-11-07T04:52:09.442Z,100018.00
2018-11-07T04:57:12.990Z,100028.42
2018-11-07T05:02:16.554Z,100026.83
2018-11-07T05:07:20.025Z,100013.86
2018-11-07T05:12:23.677Z,100016.50
2018-11-07T05:17:27.233Z,100017.41
2018-11-07T05:22:30.860Z,100024.27
2018-11-07T05:27:36.128Z,100019.04
2018-11-07T05:32:39.876Z,100015.56
2018-11-07T05:37:43.550Z,100019.00
2018-11-07T05:42:47.313Z,100007.38
2018-11-07T05:47:50.983Z,100002.11
2018-11-07T05:52:54.888Z,100005.99
2018-11-07T05:57:58.753Z,100017.14
2018-11-07T06:03:02.993Z,100023.95
2018-11-07T06:08:07.228Z,100023.77
2018-11-07T06:13:10.939Z,100024.13
2018-11-07T06:18:14.572Z,100027.44
2018-11-07T06:23:18.230Z,100037.22
2018-11-07T06:28:22.939Z,100047.11
2018-11-07T06:33:28.132Z,100057.39
2018-11-07T06:38:33.261Z,100058.50
2018-11-07T06:43:37.932Z,100070.54
2018-11-07T06:48:43.435Z,100084.02
2018-11-07T06:53:48.507Z,100089.75
2018-11-07T06:58:55.002Z,100091.62
2018-11-07T07:03:58.587Z,100087.45
2018-11-07T07:09:03.023Z,100086.70
2018-11-07T07:14:06.860Z,100082.78
2018-11-07T07:19:10.482Z,100086.00
2018-11-07T07:24:14.220Z,100088.72
2018-11-07T07:29:17.778Z,100090.73
2018-11-07T07:34:21.493Z,100091.48
2018-11-07T07:39:25.136Z,100094.41
2018-11-07T07:44:28.775Z,100082.13
2018-11-07T07:49:32.358Z,100090.69
2018-11-07T07:54:36.018Z,100088.90
2018-11-07T07:59:39.588Z,100075.33
2018-11-07T08:04:43.185Z,100080.70
2018-11-07T08:09:46.789Z,100087.01
2018-11-07T08:14:50.579Z,100087.53
2018-11-07T08:19:54.069Z,100088.91
2018-11-07T08:24:57.743Z,100083.70
2018-11-07T08:30:01.296Z,100091.56
2018-11-07T08:35:05.549Z,100099.56
2018-11-07T08:40:14.654Z,100093.08
2018-11-07T08:45:18.407Z,100097.36
2018-11-07T08:50:22.492Z,100101.25
2018-11-07T08:55:26.094Z,100101.63
2018-11-07T09:00:32.203Z,100105.21
2018-11-07T09:05:35.838Z,100105.08
2018-11-07T09:10:39.539Z,100111.48
2018-11-07T09:15:43.137Z,100113.97
2018-11-07T09:20:46.876Z,100120.92
2018-11-07T09:25:50.563Z,100116.92
2018-11-07T09:30:54.115Z,100115.83
2018-11-07T09:35:57.758Z,100117.65
2018-11-07T09:41:02.200Z,100124.94
2018-11-07T09:46:06.018Z,100128.04
2018-11-07T09:51:09.573Z,100124.83
2018-11-07T09:56:13.235Z,100122.22
2018-11-07T10:01:16.835Z,100121.05
2018-11-07T10:06:20.488Z,100125.00
2018-11-07T10:11:24.205Z,100122.91
2018-11-07T10:16:27.758Z,100112.63
2018-11-07T10:21:31.243Z,100110.27
2018-11-07T10:26:34.837Z,100108.03
2018-11-07T10:31:38.353Z,100102.59
2018-11-07T10:36:41.936Z,100101.34
2018-11-07T10:41:45.831Z,100096.00
2018-11-07T10:46:49.406Z,100096.25
2018-11-07T10:51:53.082Z,100077.44
2018-11-07T10:56:56.931Z,100076.16
2018-11-07T11:02:02.613Z,100078.70
2018-11-07T11:07:06.684Z,100069.45
2018-11-07T11:12:10.314Z,100072.03
2018-11-07T11:17:13.857Z,100073.84
2018-11-07T11:22:17.521Z,100068.84
2018-11-07T11:27:21.141Z,100072.28
2018-11-07T11:32:25.119Z,100083.63
2018-11-07T11:37:28.782Z,100082.18
2018-11-07T11:42:32.516Z,100087.72
2018-11-07T11:47:36.048Z,100088.70
2018-11-07T11:52:39.810Z,100092.03
2018-11-07T11:57:43.851Z,100091.95
2018-11-07T12:02:47.811Z,100091.63
2018-11-07T12:07:52.325Z,100086.75
2018-11-07T12:12:56.992Z,100090.25
2018-11-07T12:18:00.782Z,100091.42
2018-11-07T12:23:04.556Z,100082.63
2018-11-07T12:28:08.035Z,100090.84
2018-11-07T12:33:11.691Z,100084.84
2018-11-07T12:38:15.245Z,100081.71
2018-11-07T12:43:22.579Z,100074.98
2018-11-07T12:48:26.452Z,100078.62
2018-11-07T12:53:30.393Z,100073.55
2018-11-07T12:58:34.259Z,100085.85
2018-11-07T13:03:38.124Z,100082.09
2018-11-07T13:08:41.836Z,100074.21
2018-11-07T13:13:45.631Z,100081.45
2018-11-07T13:18:49.150Z,100080.39
2018-11-07T13:23:52.710Z,100084.67
2018-11-07T13:28:56.481Z,100092.88
2018-11-07T13:34:00.052Z,100091.36
2018-11-07T13:39:04.423Z,100089.47
2018-11-07T13:44:07.945Z,100087.47
2018-11-07T13:49:11.550Z,100089.98
2018-11-07T13:54:16.046Z,100089.25
2018-11-07T13:59:19.589Z,100101.60
2018-11-07T14:04:23.237Z,100102.03
2018-11-07T14:09:26.890Z,100107.47
2018-11-07T14:14:30.540Z,100104.16
2018-11-07T14:19:34.166Z,100102.45
2018-11-07T14:24:37.785Z,100112.28
2018-11-07T14:29:41.331Z,100107.99
2018-11-07T14:34:45.481Z,100113.28
2018-11-07T14:39:48.989Z,100122.20
2018-11-07T14:44:52.589Z,100126.63
2018-11-07T14:49:56.192Z,100137.83
2018-11-07T14:55:00.064Z,100142.58
2018-11-07T15:00:04.432Z,100152.37
2018-11-07T15:05:09.623Z,100144.98
2018-11-07T15:10:14.161Z,100140.42
2018-11-07T15:15:19.010Z,100149.05
2018-11-07T15:20:22.479Z,100157.91
2018-11-07T15:25:26.033Z,100154.34
2018-11-07T15:30:29.692Z,100157.02
2018-11-07T15:35:33.388Z,100166.58
2018-11-07T15:40:36.895Z,100171.42
2018-11-07T15:45:40.661Z,100176.23
2018-11-07T15:50:50.485Z,100183.73
2018-11-07T15:55:54.199Z,100185.77
2018-11-07T16:00:57.798Z,100191.38
2018-11-07T16:06:01.418Z,100200.54
2018-11-07T16:11:05.445Z,100192.67
2018-11-07T16:16:09.032Z,100201.88
2018-11-07T16:21:12.747Z,100207.31
2018-11-07T16:26:16.484Z,100209.47
2018-11-07T16:31:23.892Z,100220.47
2018-11-07T16:36:27.579Z,100226.25
2018-11-07T16:41:31.449Z,100223.02
2018-11-07T16:46:35.122Z,100221.50
2018-11-07T16:51:38.704Z,100228.98
2018-11-07T16:56:42.397Z,100238.35
2018-11-07T17:01:46.054Z,100249.09
2018-11-07T17:06:49.727Z,100247.79
2018-11-07T17:11:53.388Z,100255.38
2018-11-07T17:16:57.003Z,100264.39
2018-11-07T17:22:00.609Z,100271.49
2018-11-07T17:27:04.273Z,100279.72
2018-11-07T17:32:08.052Z,100280.36
2018-11-07T17:37:11.718Z,100287.21
2018-11-07T17:42:15.290Z,100287.63
2018-11-07T17:47:18.827Z,100289.52
2018-11-07T17:52:22.507Z,100293.48
2018-11-07T17:57:39.117Z,100296.39
2018-11-07T18:02:42.836Z,100296.97
2018-11-07T18:07:46.754Z,100300.44
2018-11-07T18:12:50.361Z,100308.13
2018-11-07T18:17:57.802Z,100315.52
2018-11-07T18:23:01.462Z,100318.84
2018-11-07T18:28:05.605Z,100326.14
2018-11-07T18:33:09.509Z,100337.70
2018-11-07T18:38:13.279Z,100340.06
2018-11-07T18:43:16.995Z,100345.03
2018-11-07T18:48:20.612Z,100335.21
2018-11-07T18:53:31.279Z,100348.47
2018-11-07T18:58:34.883Z,100359.33
2018-11-07T19:03:38.488Z,100358.97
2018-11-07T19:08:42.196Z,100364.55
2018-11-07T19:13:45.814Z,100364.96
2018-11-07T19:18:49.542Z,100368.75
2018-11-07T19:23:53.241Z,100375.28
2018-11-07T19:28:56.880Z,100387.34
2018-11-07T19:34:00.539Z,100385.19
2018-11-07T19:39:05.403Z,100385.54
2018-11-07T19:44:10.451Z,100389.02
2018-11-07T19:49:14.449Z,100398.70
2018-11-07T19:54:19.281Z,100391.80
2018-11-07T19:59:22.907Z,100411.91
2018-11-07T20:04:26.751Z,100418.61
2018-11-07T20:09:30.322Z,100436.95
2018-11-07T20:14:33.872Z,100441.44
2018-11-07T20:19:37.412Z,100448.02
2018-11-07T20:24:41.071Z,100454.95
2018-11-07T20:29:44.954Z,100452.42
2018-11-07T20:34:48.681Z,100461.28
2018-11-07T20:39:52.840Z,100466.06
2018-11-07T20:44:56.422Z,100474.54
2018-11-07T20:50:00.352Z,100469.81
2018-11-07T20:55:04.294Z,100472.64
2018-11-07T21:00:13.968Z,100479.66
2018-11-07T21:05:23.713Z,100484.06
2018-11-07T21:10:27.460Z,100484.17
2018-11-07T21:15:30.944Z,100489.06
2018-11-07T21:20:34.481Z,100497.86
2018-11-07T21:25:38.061Z,100510.39
2018-11-07T21:30:41.529Z,100524.64
2018-11-07T21:35:45.426Z,100527.66
2018-11-07T21:40:49.256Z,100530.69
2018-11-07T21:45:52.794Z,100528.07
2018-11-07T21:50:56.439Z,100534.19
2018-11-07T21:55:59.976Z,100542.91
2018-11-07T22:01:03.605Z,100546.45
2018-11-07T22:06:07.238Z,100548.65
2018-11-07T22:11:10.990Z,100547.34
2018-11-07T22:16:14.711Z,100547.76
2018-11-07T22:21:18.359Z,100538.72
2018-11-07T22:26:21.880Z,100540.51
2018-11-07T22:31:25.515Z,100551.36
2018-11-07T22:36:29.057Z,100561.45
2018-11-07T22:41:32.703Z,100561.01
2018-11-07T22:46:36.340Z,100564.19
2018-11-07T22:51:42.197Z,100565.56
2018-11-07T22:56:45.817Z,100559.86
2018-11-07T23:01:49.445Z,100572.84
2018-11-07T23:06:52.973Z,100574.09
2018-11-07T23:11:56.514Z,100575.71
2018-11-07T23:17:00.154Z,100582.55
2018-11-07T23:22:03.885Z,100587.61
2018-11-07T23:27:07.611Z,100588.02
2018-11-07T23:32:11.362Z,100590.53
2018-11-07T23:37:15.980Z,100601.38
2018-11-07T23:42:19.580Z,100608.77
2018-11-07T23:47:23.126Z,100607.98
2018-11-07T23:52:32.094Z,100609.28
2018-11-07T23:57:35.701Z,100612.38
